sensor_id;sensor_type;location;lat;lon;timestamp;P1;durP1;ratioP1;P2;durP2;ratioP2
7983;SDS011;4037;47.980;10.172;2023-04-15T00:00:36;6.33;;;2.60;;
7983;SDS011;4037;47.980;10.172;2023-04-15T00:03:02;7.90;;;3.00;;
7983;SDS011;4037;47.980;10.172;2023-04-15T00:05:30;3.57;;;2.50;;
7983;SDS011;4037;47.980;10.172;2023-04-15T00:07:56;3.97;;;2.60;;
7983;SDS011;4037;47.980;10.172;2023-04-15T00:10:26;3.30;;;2.60;;
7983;SDS011;4037;47.980;10.172;2023-04-15T00:12:52;4.23;;;2.53;;
7983;SDS011;4037;47.980;10.172;2023-04-15T00:15:18;6.70;;;2.90;;
7983;SDS011;4037;47.980;10.172;2023-04-15T00:17:44;8.07;;;3.50;;
7983;SDS011;4037;47.980;10.172;2023-04-15T00:20:11;6.90;;;3.03;;
7983;SDS011;4037;47.980;10.172;2023-04-15T00:22:37;6.23;;;2.70;;
7983;SDS011;4037;47.980;10.172;2023-04-15T00:25:03;4.33;;;3.33;;
7983;SDS011;4037;47.980;10.172;2023-04-15T00:27:29;6.17;;;3.50;;
7983;SDS011;4037;47.980;10.172;2023-04-15T00:29:55;6.23;;;3.03;;
7983;SDS011;4037;47.980;10.172;2023-04-15T00:32:22;7.23;;;4.07;;
7983;SDS011;4037;47.980;10.172;2023-04-15T00:34:48;4.60;;;3.70;;
7983;SDS011;4037;47.980;10.172;2023-04-15T00:37:14;5.87;;;3.47;;
7983;SDS011;4037;47.980;10.172;2023-04-15T00:39:40;5.17;;;3.80;;
7983;SDS011;4037;47.980;10.172;2023-04-15T00:42:06;6.30;;;3.03;;
7983;SDS011;4037;47.980;10.172;2023-04-15T00:44:33;6.43;;;3.57;;
7983;SDS011;4037;47.980;10.172;2023-04-15T00:46:59;5.40;;;3.30;;
7983;SDS011;4037;47.980;10.172;2023-04-15T00:49:26;5.23;;;3.03;;
7983;SDS011;4037;47.980;10.172;2023-04-15T00:51:52;4.43;;;3.53;;
7983;SDS011;4037;47.980;10.172;2023-04-15T00:54:18;4.13;;;3.07;;
7983;SDS011;4037;47.980;10.172;2023-04-15T00:56:45;5.40;;;3.43;;
7983;SDS011;4037;47.980;10.172;2023-04-15T00:59:11;5.20;;;3.20;;
7983;SDS011;4037;47.980;10.172;2023-04-15T01:01:37;3.80;;;2.80;;
7983;SDS011;4037;47.980;10.172;2023-04-15T01:04:03;4.27;;;2.70;;
7983;SDS011;4037;47.980;10.172;2023-04-15T01:06:30;5.70;;;2.67;;
7983;SDS011;4037;47.980;10.172;2023-04-15T01:08:58;4.93;;;3.03;;
7983;SDS011;4037;47.980;10.172;2023-04-15T01:11:24;5.20;;;3.00;;
7983;SDS011;4037;47.980;10.172;2023-04-15T01:13:50;6.20;;;3.03;;
7983;SDS011;4037;47.980;10.172;2023-04-15T01:16:17;3.77;;;3.47;;
7983;SDS011;4037;47.980;10.172;2023-04-15T01:18:43;5.47;;;2.97;;
7983;SDS011;4037;47.980;10.172;2023-04-15T01:21:09;6.83;;;3.33;;
7983;SDS011;4037;47.980;10.172;2023-04-15T01:23:36;4.97;;;2.63;;
7983;SDS011;4037;47.980;10.172;2023-04-15T01:26:02;5.53;;;2.77;;
7983;SDS011;4037;47.980;10.172;2023-04-15T01:28:29;4.20;;;2.60;;
7983;SDS011;4037;47.980;10.172;2023-04-15T01:31:05;6.13;;;3.13;;
7983;SDS011;4037;47.980;10.172;2023-04-15T01:33:31;7.83;;;3.00;;
7983;SDS011;4037;47.980;10.172;2023-04-15T01:35:57;6.10;;;2.77;;
7983;SDS011;4037;47.980;10.172;2023-04-15T01:38:25;3.07;;;2.60;;
7983;SDS011;4037;47.980;10.172;2023-04-15T01:40:51;3.77;;;2.73;;
7983;SDS011;4037;47.980;10.172;2023-04-15T01:43:17;3.00;;;2.60;;
7983;SDS011;4037;47.980;10.172;2023-04-15T01:45:44;6.03;;;3.00;;
7983;SDS011;4037;47.980;10.172;2023-04-15T01:48:10;3.73;;;2.90;;
7983;SDS011;4037;47.980;10.172;2023-04-15T01:50:37;4.40;;;3.10;;
7983;SDS011;4037;47.980;10.172;2023-04-15T01:53:03;5.13;;;3.23;;
7983;SDS011;4037;47.980;10.172;2023-04-15T01:55:29;4.77;;;3.10;;
7983;SDS011;4037;47.980;10.172;2023-04-15T01:57:55;8.93;;;3.17;;
7983;SDS011;4037;47.980;10.172;2023-04-15T02:00:21;3.40;;;3.10;;
7983;SDS011;4037;47.980;10.172;2023-04-15T02:02:48;6.00;;;3.00;;
7983;SDS011;4037;47.980;10.172;2023-04-15T02:05:14;4.87;;;2.90;;
7983;SDS011;4037;47.980;10.172;2023-04-15T02:07:41;4.30;;;3.17;;
7983;SDS011;4037;47.980;10.172;2023-04-15T02:10:07;3.70;;;3.00;;
7983;SDS011;4037;47.980;10.172;2023-04-15T02:12:34;6.73;;;3.00;;
7983;SDS011;4037;47.980;10.172;2023-04-15T02:15:00;3.67;;;2.70;;
7983;SDS011;4037;47.980;10.172;2023-04-15T02:17:26;6.87;;;2.80;;
7983;SDS011;4037;47.980;10.172;2023-04-15T02:19:52;4.47;;;2.93;;
7983;SDS011;4037;47.980;10.172;2023-04-15T02:22:20;6.43;;;3.37;;
7983;SDS011;4037;47.980;10.172;2023-04-15T02:24:46;4.63;;;3.10;;
7983;SDS011;4037;47.980;10.172;2023-04-15T02:27:15;3.27;;;2.47;;
7983;SDS011;4037;47.980;10.172;2023-04-15T02:29:42;3.77;;;2.70;;
7983;SDS011;4037;47.980;10.172;2023-04-15T02:32:09;4.07;;;2.97;;
7983;SDS011;4037;47.980;10.172;2023-04-15T02:34:36;4.50;;;3.23;;
7983;SDS011;4037;47.980;10.172;2023-04-15T02:37:05;5.87;;;3.27;;
7983;SDS011;4037;47.980;10.172;2023-04-15T02:39:31;6.50;;;3.40;;
7983;SDS011;4037;47.980;10.172;2023-04-15T02:41:57;5.00;;;3.13;;
7983;SDS011;4037;47.980;10.172;2023-04-15T02:44:24;4.10;;;2.53;;
7983;SDS011;4037;47.980;10.172;2023-04-15T02:46:51;5.73;;;3.63;;
7983;SDS011;4037;47.980;10.172;2023-04-15T02:49:19;5.90;;;3.00;;
7983;SDS011;4037;47.980;10.172;2023-04-15T02:51:45;7.20;;;2.73;;
7983;SDS011;4037;47.980;10.172;2023-04-15T02:54:13;3.43;;;2.70;;
7983;SDS011;4037;47.980;10.172;2023-04-15T02:56:39;3.53;;;2.80;;
7983;SDS011;4037;47.980;10.172;2023-04-15T02:59:05;6.00;;;3.00;;
7983;SDS011;4037;47.980;10.172;2023-04-15T03:01:31;5.00;;;2.77;;
7983;SDS011;4037;47.980;10.172;2023-04-15T03:03:57;3.50;;;2.47;;
7983;SDS011;4037;47.980;10.172;2023-04-15T03:06:23;2.90;;;2.40;;
7983;SDS011;4037;47.980;10.172;2023-04-15T03:08:50;5.77;;;2.90;;
7983;SDS011;4037;47.980;10.172;2023-04-15T03:11:16;4.40;;;2.67;;
7983;SDS011;4037;47.980;10.172;2023-04-15T03:13:42;2.97;;;2.47;;
7983;SDS011;4037;47.980;10.172;2023-04-15T03:16:08;3.83;;;2.30;;
7983;SDS011;4037;47.980;10.172;2023-04-15T03:18:35;3.87;;;2.87;;
7983;SDS011;4037;47.980;10.172;2023-04-15T03:21:01;7.47;;;2.37;;
7983;SDS011;4037;47.980;10.172;2023-04-15T03:23:30;3.63;;;2.37;;
7983;SDS011;4037;47.980;10.172;2023-04-15T03:25:56;6.00;;;2.50;;
7983;SDS011;4037;47.980;10.172;2023-04-15T03:28:23;3.20;;;2.37;;
7983;SDS011;4037;47.980;10.172;2023-04-15T03:30:50;3.77;;;2.30;;
7983;SDS011;4037;47.980;10.172;2023-04-15T03:33:16;3.90;;;2.33;;
7983;SDS011;4037;47.980;10.172;2023-04-15T03:35:41;3.27;;;2.20;;
7983;SDS011;4037;47.980;10.172;2023-04-15T03:38:08;5.07;;;2.10;;
7983;SDS011;4037;47.980;10.172;2023-04-15T03:40:34;3.83;;;2.03;;
7983;SDS011;4037;47.980;10.172;2023-04-15T03:43:00;5.43;;;2.10;;
7983;SDS011;4037;47.980;10.172;2023-04-15T03:45:26;3.33;;;2.17;;
7983;SDS011;4037;47.980;10.172;2023-04-15T03:47:52;3.00;;;2.10;;
7983;SDS011;4037;47.980;10.172;2023-04-15T03:50:18;3.50;;;2.10;;
7983;SDS011;4037;47.980;10.172;2023-04-15T03:52:44;2.97;;;2.03;;
7983;SDS011;4037;47.980;10.172;2023-04-15T03:55:10;5.30;;;2.50;;
7983;SDS011;4037;47.980;10.172;2023-04-15T03:57:36;3.80;;;2.10;;
7983;SDS011;4037;47.980;10.172;2023-04-15T04:00:06;4.07;;;2.00;;
7983;SDS011;4037;47.980;10.172;2023-04-15T04:02:33;4.70;;;2.20;;
7983;SDS011;4037;47.980;10.172;2023-04-15T04:04:59;2.63;;;2.43;;
7983;SDS011;4037;47.980;10.172;2023-04-15T04:07:25;5.30;;;2.00;;
7983;SDS011;4037;47.980;10.172;2023-04-15T04:09:51;3.70;;;2.47;;
7983;SDS011;4037;47.980;10.172;2023-04-15T04:12:17;2.20;;;2.00;;
7983;SDS011;4037;47.980;10.172;2023-04-15T04:14:43;4.93;;;2.23;;
7983;SDS011;4037;47.980;10.172;2023-04-15T04:17:09;2.50;;;2.30;;
7983;SDS011;4037;47.980;10.172;2023-04-15T04:19:35;2.60;;;1.90;;
7983;SDS011;4037;47.980;10.172;2023-04-15T04:22:01;5.17;;;2.70;;
7983;SDS011;4037;47.980;10.172;2023-04-15T04:24:27;3.50;;;2.20;;
7983;SDS011;4037;47.980;10.172;2023-04-15T04:26:53;2.80;;;2.40;;
7983;SDS011;4037;47.980;10.172;2023-04-15T04:29:21;3.77;;;2.07;;
7983;SDS011;4037;47.980;10.172;2023-04-15T04:31:47;2.77;;;2.10;;
7983;SDS011;4037;47.980;10.172;2023-04-15T04:34:13;2.77;;;1.90;;
7983;SDS011;4037;47.980;10.172;2023-04-15T04:36:39;2.63;;;1.80;;
7983;SDS011;4037;47.980;10.172;2023-04-15T04:39:06;6.40;;;2.37;;
7983;SDS011;4037;47.980;10.172;2023-04-15T04:41:32;2.60;;;2.40;;
7983;SDS011;4037;47.980;10.172;2023-04-15T04:43:58;5.20;;;2.47;;
7983;SDS011;4037;47.980;10.172;2023-04-15T04:46:24;4.70;;;2.50;;
7983;SDS011;4037;47.980;10.172;2023-04-15T04:48:50;4.47;;;2.30;;
7983;SDS011;4037;47.980;10.172;2023-04-15T04:51:16;4.17;;;2.60;;
7983;SDS011;4037;47.980;10.172;2023-04-15T04:53:42;4.27;;;2.50;;
7983;SDS011;4037;47.980;10.172;2023-04-15T04:56:08;4.60;;;3.00;;
7983;SDS011;4037;47.980;10.172;2023-04-15T04:58:34;5.40;;;2.97;;
7983;SDS011;4037;47.980;10.172;2023-04-15T05:01:00;4.57;;;2.40;;
7983;SDS011;4037;47.980;10.172;2023-04-15T05:03:27;5.17;;;2.43;;
7983;SDS011;4037;47.980;10.172;2023-04-15T05:05:53;3.33;;;2.20;;
7983;SDS011;4037;47.980;10.172;2023-04-15T05:08:19;2.17;;;1.97;;
7983;SDS011;4037;47.980;10.172;2023-04-15T05:10:45;5.03;;;2.37;;
7983;SDS011;4037;47.980;10.172;2023-04-15T05:13:11;2.57;;;2.27;;
7983;SDS011;4037;47.980;10.172;2023-04-15T05:15:37;3.60;;;2.27;;
7983;SDS011;4037;47.980;10.172;2023-04-15T05:18:05;4.43;;;2.03;;
7983;SDS011;4037;47.980;10.172;2023-04-15T05:20:31;3.13;;;2.60;;
7983;SDS011;4037;47.980;10.172;2023-04-15T05:22:57;4.30;;;2.33;;
7983;SDS011;4037;47.980;10.172;2023-04-15T05:25:23;3.00;;;2.43;;
7983;SDS011;4037;47.980;10.172;2023-04-15T05:27:49;3.00;;;1.80;;
7983;SDS011;4037;47.980;10.172;2023-04-15T05:30:15;3.83;;;2.27;;
7983;SDS011;4037;47.980;10.172;2023-04-15T05:32:41;2.23;;;1.87;;
7983;SDS011;4037;47.980;10.172;2023-04-15T05:35:07;2.17;;;1.87;;
7983;SDS011;4037;47.980;10.172;2023-04-15T05:37:33;5.37;;;2.33;;
7983;SDS011;4037;47.980;10.172;2023-04-15T05:40:00;4.37;;;2.20;;
7983;SDS011;4037;47.980;10.172;2023-04-15T05:42:26;4.30;;;1.90;;
7983;SDS011;4037;47.980;10.172;2023-04-15T05:44:52;3.83;;;2.40;;
7983;SDS011;4037;47.980;10.172;2023-04-15T05:47:18;3.90;;;2.37;;
7983;SDS011;4037;47.980;10.172;2023-04-15T05:49:44;3.43;;;1.63;;
7983;SDS011;4037;47.980;10.172;2023-04-15T05:52:10;2.70;;;1.80;;
7983;SDS011;4037;47.980;10.172;2023-04-15T05:54:36;1.90;;;1.70;;
7983;SDS011;4037;47.980;10.172;2023-04-15T05:57:02;2.73;;;1.90;;
7983;SDS011;4037;47.980;10.172;2023-04-15T05:59:28;2.67;;;1.53;;
7983;SDS011;4037;47.980;10.172;2023-04-15T06:01:54;3.00;;;2.07;;
7983;SDS011;4037;47.980;10.172;2023-04-15T06:04:21;2.57;;;1.90;;
7983;SDS011;4037;47.980;10.172;2023-04-15T06:06:47;2.37;;;1.57;;
7983;SDS011;4037;47.980;10.172;2023-04-15T06:09:13;2.73;;;1.60;;
7983;SDS011;4037;47.980;10.172;2023-04-15T06:11:39;3.43;;;2.13;;
7983;SDS011;4037;47.980;10.172;2023-04-15T06:14:05;1.93;;;1.67;;
7983;SDS011;4037;47.980;10.172;2023-04-15T06:16:31;3.30;;;2.00;;
7983;SDS011;4037;47.980;10.172;2023-04-15T06:18:57;2.77;;;1.63;;
7983;SDS011;4037;47.980;10.172;2023-04-15T06:21:23;2.10;;;1.77;;
7983;SDS011;4037;47.980;10.172;2023-04-15T06:23:49;2.40;;;1.57;;
7983;SDS011;4037;47.980;10.172;2023-04-15T06:26:15;2.77;;;2.10;;
7983;SDS011;4037;47.980;10.172;2023-04-15T06:28:41;3.67;;;1.90;;
7983;SDS011;4037;47.980;10.172;2023-04-15T06:31:07;2.23;;;2.03;;
7983;SDS011;4037;47.980;10.172;2023-04-15T06:33:33;2.73;;;1.90;;
7983;SDS011;4037;47.980;10.172;2023-04-15T06:35:59;3.07;;;2.03;;
7983;SDS011;4037;47.980;10.172;2023-04-15T06:38:26;2.37;;;1.90;;
7983;SDS011;4037;47.980;10.172;2023-04-15T06:40:52;2.30;;;2.10;;
7983;SDS011;4037;47.980;10.172;2023-04-15T06:43:18;2.33;;;1.60;;
7983;SDS011;4037;47.980;10.172;2023-04-15T06:45:44;1.90;;;1.70;;
7983;SDS011;4037;47.980;10.172;2023-04-15T06:48:11;1.63;;;1.53;;
7983;SDS011;4037;47.980;10.172;2023-04-15T06:50:37;3.73;;;1.80;;
7983;SDS011;4037;47.980;10.172;2023-04-15T06:53:03;2.73;;;1.90;;
7983;SDS011;4037;47.980;10.172;2023-04-15T06:55:29;5.53;;;1.87;;
7983;SDS011;4037;47.980;10.172;2023-04-15T06:57:56;4.00;;;2.10;;
7983;SDS011;4037;47.980;10.172;2023-04-15T07:00:22;2.10;;;1.90;;
7983;SDS011;4037;47.980;10.172;2023-04-15T07:02:48;2.17;;;1.77;;
7983;SDS011;4037;47.980;10.172;2023-04-15T07:05:14;3.00;;;1.93;;
7983;SDS011;4037;47.980;10.172;2023-04-15T07:07:40;2.03;;;1.67;;
7983;SDS011;4037;47.980;10.172;2023-04-15T07:10:06;2.50;;;2.30;;
7983;SDS011;4037;47.980;10.172;2023-04-15T07:12:32;3.63;;;1.70;;
7983;SDS011;4037;47.980;10.172;2023-04-15T07:14:59;1.90;;;1.80;;
7983;SDS011;4037;47.980;10.172;2023-04-15T07:17:26;3.13;;;1.60;;
7983;SDS011;4037;47.980;10.172;2023-04-15T07:19:51;2.33;;;1.60;;
7983;SDS011;4037;47.980;10.172;2023-04-15T07:22:18;3.00;;;1.70;;
7983;SDS011;4037;47.980;10.172;2023-04-15T07:24:44;2.43;;;1.80;;
7983;SDS011;4037;47.980;10.172;2023-04-15T07:27:10;2.93;;;1.60;;
7983;SDS011;4037;47.980;10.172;2023-04-15T07:29:36;1.70;;;1.60;;
7983;SDS011;4037;47.980;10.172;2023-04-15T07:32:02;1.23;;;1.10;;
7983;SDS011;4037;47.980;10.172;2023-04-15T07:34:28;1.83;;;1.57;;
7983;SDS011;4037;47.980;10.172;2023-04-15T07:36:54;2.33;;;1.50;;
7983;SDS011;4037;47.980;10.172;2023-04-15T07:39:21;4.07;;;1.30;;
7983;SDS011;4037;47.980;10.172;2023-04-15T07:41:47;3.33;;;2.27;;
7983;SDS011;4037;47.980;10.172;2023-04-15T07:44:13;2.03;;;1.50;;
7983;SDS011;4037;47.980;10.172;2023-04-15T07:46:39;4.90;;;1.67;;
7983;SDS011;4037;47.980;10.172;2023-04-15T07:49:05;1.90;;;1.30;;
7983;SDS011;4037;47.980;10.172;2023-04-15T07:51:31;1.90;;;1.80;;
7983;SDS011;4037;47.980;10.172;2023-04-15T07:53:57;1.33;;;1.20;;
7983;SDS011;4037;47.980;10.172;2023-04-15T07:56:23;1.50;;;1.40;;
7983;SDS011;4037;47.980;10.172;2023-04-15T07:58:50;2.77;;;1.40;;
7983;SDS011;4037;47.980;10.172;2023-04-15T08:01:16;3.30;;;1.50;;
7983;SDS011;4037;47.980;10.172;2023-04-15T08:03:42;3.67;;;1.57;;
7983;SDS011;4037;47.980;10.172;2023-04-15T08:06:08;3.47;;;1.40;;
7983;SDS011;4037;47.980;10.172;2023-04-15T08:08:34;2.40;;;1.40;;
7983;SDS011;4037;47.980;10.172;2023-04-15T08:11:00;3.50;;;1.37;;
7983;SDS011;4037;47.980;10.172;2023-04-15T08:13:26;9.57;;;2.07;;
7983;SDS011;4037;47.980;10.172;2023-04-15T08:18:36;2.67;;;1.50;;
7983;SDS011;4037;47.980;10.172;2023-04-15T08:21:02;2.00;;;1.30;;
7983;SDS011;4037;47.980;10.172;2023-04-15T08:23:29;1.50;;;1.37;;
7983;SDS011;4037;47.980;10.172;2023-04-15T08:25:55;1.77;;;1.60;;
7983;SDS011;4037;47.980;10.172;2023-04-15T08:28:21;3.27;;;1.43;;
7983;SDS011;4037;47.980;10.172;2023-04-15T08:30:47;3.03;;;1.60;;
7983;SDS011;4037;47.980;10.172;2023-04-15T08:33:13;3.50;;;1.60;;
7983;SDS011;4037;47.980;10.172;2023-04-15T08:35:39;1.67;;;1.30;;
7983;SDS011;4037;47.980;10.172;2023-04-15T08:38:06;3.90;;;1.50;;
7983;SDS011;4037;47.980;10.172;2023-04-15T08:40:35;1.90;;;1.30;;
7983;SDS011;4037;47.980;10.172;2023-04-15T08:43:05;1.33;;;1.23;;
7983;SDS011;4037;47.980;10.172;2023-04-15T08:45:33;2.13;;;1.47;;
7983;SDS011;4037;47.980;10.172;2023-04-15T08:47:59;2.87;;;1.23;;
7983;SDS011;4037;47.980;10.172;2023-04-15T08:50:27;2.10;;;1.53;;
7983;SDS011;4037;47.980;10.172;2023-04-15T08:52:54;3.23;;;1.50;;
7983;SDS011;4037;47.980;10.172;2023-04-15T08:55:21;1.20;;;1.10;;
7983;SDS011;4037;47.980;10.172;2023-04-15T08:57:47;1.70;;;1.23;;
7983;SDS011;4037;47.980;10.172;2023-04-15T09:00:13;1.93;;;1.40;;
7983;SDS011;4037;47.980;10.172;2023-04-15T09:02:40;2.00;;;1.40;;
7983;SDS011;4037;47.980;10.172;2023-04-15T09:05:06;1.40;;;1.20;;
7983;SDS011;4037;47.980;10.172;2023-04-15T09:07:33;3.57;;;1.53;;
7983;SDS011;4037;47.980;10.172;2023-04-15T09:10:01;2.47;;;1.20;;
7983;SDS011;4037;47.980;10.172;2023-04-15T09:12:27;3.13;;;1.67;;
7983;SDS011;4037;47.980;10.172;2023-04-15T09:14:53;3.30;;;1.93;;
7983;SDS011;4037;47.980;10.172;2023-04-15T09:17:20;3.53;;;1.40;;
7983;SDS011;4037;47.980;10.172;2023-04-15T09:19:46;2.10;;;1.40;;
7983;SDS011;4037;47.980;10.172;2023-04-15T09:22:12;2.57;;;1.73;;
7983;SDS011;4037;47.980;10.172;2023-04-15T09:24:39;3.17;;;1.33;;
7983;SDS011;4037;47.980;10.172;2023-04-15T09:27:07;1.60;;;1.00;;
7983;SDS011;4037;47.980;10.172;2023-04-15T09:29:33;2.10;;;1.70;;
7983;SDS011;4037;47.980;10.172;2023-04-15T09:32:15;2.57;;;1.47;;
7983;SDS011;4037;47.980;10.172;2023-04-15T09:34:41;4.47;;;2.17;;
7983;SDS011;4037;47.980;10.172;2023-04-15T09:37:08;3.73;;;1.60;;
7983;SDS011;4037;47.980;10.172;2023-04-15T09:39:48;3.00;;;1.83;;
7983;SDS011;4037;47.980;10.172;2023-04-15T09:42:14;4.20;;;1.97;;
7983;SDS011;4037;47.980;10.172;2023-04-15T09:44:41;4.07;;;1.67;;
7983;SDS011;4037;47.980;10.172;2023-04-15T09:47:08;2.13;;;1.50;;
7983;SDS011;4037;47.980;10.172;2023-04-15T09:49:34;3.53;;;1.57;;
7983;SDS011;4037;47.980;10.172;2023-04-15T09:52:00;8.50;;;3.37;;
7983;SDS011;4037;47.980;10.172;2023-04-15T09:54:33;6.63;;;2.07;;
7983;SDS011;4037;47.980;10.172;2023-04-15T09:57:03;3.37;;;1.50;;
7983;SDS011;4037;47.980;10.172;2023-04-15T09:59:30;5.53;;;2.03;;
7983;SDS011;4037;47.980;10.172;2023-04-15T10:01:56;3.27;;;1.77;;
7983;SDS011;4037;47.980;10.172;2023-04-15T10:04:22;4.10;;;1.70;;
7983;SDS011;4037;47.980;10.172;2023-04-15T10:06:48;3.70;;;2.67;;
7983;SDS011;4037;47.980;10.172;2023-04-15T10:09:15;3.03;;;2.20;;
7983;SDS011;4037;47.980;10.172;2023-04-15T10:11:41;2.70;;;1.40;;
7983;SDS011;4037;47.980;10.172;2023-04-15T10:14:08;1.83;;;1.40;;
7983;SDS011;4037;47.980;10.172;2023-04-15T10:16:35;3.70;;;1.70;;
7983;SDS011;4037;47.980;10.172;2023-04-15T10:19:03;2.17;;;1.70;;
7983;SDS011;4037;47.980;10.172;2023-04-15T10:21:31;3.57;;;1.77;;
7983;SDS011;4037;47.980;10.172;2023-04-15T10:23:57;3.47;;;1.60;;
7983;SDS011;4037;47.980;10.172;2023-04-15T10:26:26;5.37;;;1.60;;
7983;SDS011;4037;47.980;10.172;2023-04-15T10:28:52;2.40;;;1.70;;
7983;SDS011;4037;47.980;10.172;2023-04-15T10:31:18;5.83;;;1.90;;
7983;SDS011;4037;47.980;10.172;2023-04-15T10:33:44;6.17;;;1.70;;
7983;SDS011;4037;47.980;10.172;2023-04-15T10:36:11;4.00;;;1.90;;
7983;SDS011;4037;47.980;10.172;2023-04-15T10:38:38;2.90;;;1.63;;
7983;SDS011;4037;47.980;10.172;2023-04-15T10:41:15;5.23;;;2.47;;
7983;SDS011;4037;47.980;10.172;2023-04-15T10:44:01;8.60;;;2.30;;
7983;SDS011;4037;47.980;10.172;2023-04-15T10:46:37;4.60;;;1.60;;
7983;SDS011;4037;47.980;10.172;2023-04-15T10:51:39;3.57;;;1.80;;
7983;SDS011;4037;47.980;10.172;2023-04-15T10:54:13;4.10;;;2.47;;
7983;SDS011;4037;47.980;10.172;2023-04-15T10:56:43;3.50;;;1.90;;
7983;SDS011;4037;47.980;10.172;2023-04-15T10:59:09;7.07;;;2.17;;
7983;SDS011;4037;47.980;10.172;2023-04-15T11:01:54;4.03;;;1.80;;
7983;SDS011;4037;47.980;10.172;2023-04-15T11:07:06;2.40;;;1.60;;
7983;SDS011;4037;47.980;10.172;2023-04-15T11:09:32;3.97;;;1.80;;
7983;SDS011;4037;47.980;10.172;2023-04-15T11:12:04;4.97;;;2.03;;
7983;SDS011;4037;47.980;10.172;2023-04-15T11:14:32;3.67;;;2.03;;
7983;SDS011;4037;47.980;10.172;2023-04-15T11:16:59;3.17;;;1.70;;
7983;SDS011;4037;47.980;10.172;2023-04-15T11:19:26;5.47;;;2.60;;
7983;SDS011;4037;47.980;10.172;2023-04-15T11:21:52;3.27;;;1.80;;
7983;SDS011;4037;47.980;10.172;2023-04-15T11:24:24;4.47;;;1.83;;
7983;SDS011;4037;47.980;10.172;2023-04-15T11:26:56;2.63;;;1.90;;
7983;SDS011;4037;47.980;10.172;2023-04-15T11:29:27;4.00;;;2.97;;
7983;SDS011;4037;47.980;10.172;2023-04-15T11:32:03;4.00;;;2.00;;
7983;SDS011;4037;47.980;10.172;2023-04-15T11:34:30;4.90;;;3.20;;
7983;SDS011;4037;47.980;10.172;2023-04-15T11:36:57;3.73;;;2.70;;
7983;SDS011;4037;47.980;10.172;2023-04-15T11:39:23;2.73;;;1.93;;
7983;SDS011;4037;47.980;10.172;2023-04-15T11:41:49;3.67;;;1.90;;
7983;SDS011;4037;47.980;10.172;2023-04-15T11:44:18;3.80;;;1.93;;
7983;SDS011;4037;47.980;10.172;2023-04-15T11:46:44;3.27;;;1.73;;
7983;SDS011;4037;47.980;10.172;2023-04-15T11:49:10;3.40;;;2.70;;
7983;SDS011;4037;47.980;10.172;2023-04-15T11:51:36;5.17;;;2.27;;
7983;SDS011;4037;47.980;10.172;2023-04-15T11:54:02;7.80;;;2.10;;
7983;SDS011;4037;47.980;10.172;2023-04-15T11:56:28;4.17;;;1.90;;
7983;SDS011;4037;47.980;10.172;2023-04-15T11:58:55;3.77;;;1.90;;
7983;SDS011;4037;47.980;10.172;2023-04-15T12:01:36;9.23;;;2.33;;
7983;SDS011;4037;47.980;10.172;2023-04-15T12:04:10;4.97;;;2.10;;
7983;SDS011;4037;47.980;10.172;2023-04-15T12:06:37;3.30;;;2.20;;
7983;SDS011;4037;47.980;10.172;2023-04-15T12:11:30;4.67;;;1.90;;
7983;SDS011;4037;47.980;10.172;2023-04-15T12:14:04;3.60;;;1.90;;
7983;SDS011;4037;47.980;10.172;2023-04-15T12:16:30;3.13;;;1.80;;
7983;SDS011;4037;47.980;10.172;2023-04-15T12:18:58;2.93;;;1.80;;
7983;SDS011;4037;47.980;10.172;2023-04-15T12:21:25;4.67;;;2.10;;
7983;SDS011;4037;47.980;10.172;2023-04-15T12:26:18;2.47;;;1.50;;
7983;SDS011;4037;47.980;10.172;2023-04-15T12:28:54;5.47;;;2.10;;
7983;SDS011;4037;47.980;10.172;2023-04-15T12:31:23;7.97;;;2.80;;
7983;SDS011;4037;47.980;10.172;2023-04-15T12:33:49;5.63;;;2.50;;
7983;SDS011;4037;47.980;10.172;2023-04-15T12:36:15;3.40;;;2.50;;
7983;SDS011;4037;47.980;10.172;2023-04-15T12:38:41;6.73;;;4.30;;
7983;SDS011;4037;47.980;10.172;2023-04-15T12:41:07;7.50;;;3.80;;
7983;SDS011;4037;47.980;10.172;2023-04-15T12:43:33;7.70;;;3.90;;
7983;SDS011;4037;47.980;10.172;2023-04-15T12:46:00;5.03;;;3.27;;
7983;SDS011;4037;47.980;10.172;2023-04-15T12:48:26;4.83;;;3.40;;
7983;SDS011;4037;47.980;10.172;2023-04-15T12:50:52;6.53;;;3.47;;
7983;SDS011;4037;47.980;10.172;2023-04-15T12:53:18;5.17;;;3.00;;
7983;SDS011;4037;47.980;10.172;2023-04-15T12:55:43;4.67;;;2.70;;
7983;SDS011;4037;47.980;10.172;2023-04-15T12:58:09;6.13;;;3.17;;
7983;SDS011;4037;47.980;10.172;2023-04-15T13:00:36;3.97;;;2.97;;
7983;SDS011;4037;47.980;10.172;2023-04-15T13:03:02;5.67;;;3.60;;
7983;SDS011;4037;47.980;10.172;2023-04-15T13:05:28;7.23;;;3.57;;
7983;SDS011;4037;47.980;10.172;2023-04-15T13:07:54;7.87;;;3.37;;
7983;SDS011;4037;47.980;10.172;2023-04-15T13:10:20;5.93;;;3.87;;
7983;SDS011;4037;47.980;10.172;2023-04-15T13:12:50;4.17;;;3.07;;
7983;SDS011;4037;47.980;10.172;2023-04-15T13:15:18;4.93;;;2.43;;
7983;SDS011;4037;47.980;10.172;2023-04-15T13:17:46;2.63;;;2.13;;
7983;SDS011;4037;47.980;10.172;2023-04-15T13:20:12;4.40;;;3.20;;
7983;SDS011;4037;47.980;10.172;2023-04-15T13:22:38;3.37;;;2.10;;
7983;SDS011;4037;47.980;10.172;2023-04-15T13:25:04;3.23;;;2.13;;
7983;SDS011;4037;47.980;10.172;2023-04-15T13:27:31;3.77;;;2.70;;
7983;SDS011;4037;47.980;10.172;2023-04-15T13:29:57;4.60;;;3.23;;
7983;SDS011;4037;47.980;10.172;2023-04-15T13:32:23;7.10;;;2.70;;
7983;SDS011;4037;47.980;10.172;2023-04-15T13:34:50;3.90;;;2.60;;
7983;SDS011;4037;47.980;10.172;2023-04-15T13:37:16;3.43;;;2.47;;
7983;SDS011;4037;47.980;10.172;2023-04-15T13:39:42;5.20;;;2.63;;
7983;SDS011;4037;47.980;10.172;2023-04-15T13:42:08;3.47;;;2.77;;
7983;SDS011;4037;47.980;10.172;2023-04-15T13:44:34;5.53;;;3.50;;
7983;SDS011;4037;47.980;10.172;2023-04-15T13:47:00;4.70;;;2.97;;
7983;SDS011;4037;47.980;10.172;2023-04-15T13:49:26;3.37;;;3.00;;
7983;SDS011;4037;47.980;10.172;2023-04-15T13:51:52;4.27;;;3.50;;
7983;SDS011;4037;47.980;10.172;2023-04-15T13:54:18;4.50;;;3.43;;
7983;SDS011;4037;47.980;10.172;2023-04-15T13:56:44;4.53;;;2.60;;
7983;SDS011;4037;47.980;10.172;2023-04-15T13:59:10;3.67;;;3.07;;
7983;SDS011;4037;47.980;10.172;2023-04-15T14:01:36;13.47;;;6.03;;
7983;SDS011;4037;47.980;10.172;2023-04-15T14:04:02;9.00;;;4.20;;
7983;SDS011;4037;47.980;10.172;2023-04-15T14:06:28;4.30;;;3.13;;
7983;SDS011;4037;47.980;10.172;2023-04-15T14:08:55;4.20;;;2.50;;
7983;SDS011;4037;47.980;10.172;2023-04-15T14:11:21;6.27;;;3.43;;
7983;SDS011;4037;47.980;10.172;2023-04-15T14:13:47;5.40;;;3.93;;
7983;SDS011;4037;47.980;10.172;2023-04-15T14:16:13;3.30;;;2.97;;
7983;SDS011;4037;47.980;10.172;2023-04-15T14:18:39;6.63;;;3.63;;
7983;SDS011;4037;47.980;10.172;2023-04-15T14:21:05;3.57;;;3.27;;
7983;SDS011;4037;47.980;10.172;2023-04-15T14:23:31;3.50;;;2.80;;
7983;SDS011;4037;47.980;10.172;2023-04-15T14:25:57;4.97;;;2.83;;
7983;SDS011;4037;47.980;10.172;2023-04-15T14:28:23;7.03;;;3.10;;
7983;SDS011;4037;47.980;10.172;2023-04-15T14:30:49;4.00;;;3.33;;
7983;SDS011;4037;47.980;10.172;2023-04-15T14:33:15;4.37;;;2.80;;
7983;SDS011;4037;47.980;10.172;2023-04-15T14:35:41;3.53;;;3.17;;
7983;SDS011;4037;47.980;10.172;2023-04-15T14:38:08;4.83;;;2.77;;
7983;SDS011;4037;47.980;10.172;2023-04-15T14:40:35;4.27;;;3.53;;
7983;SDS011;4037;47.980;10.172;2023-04-15T14:43:01;3.53;;;3.23;;
7983;SDS011;4037;47.980;10.172;2023-04-15T14:45:27;6.57;;;3.60;;
7983;SDS011;4037;47.980;10.172;2023-04-15T14:47:53;5.03;;;3.33;;
7983;SDS011;4037;47.980;10.172;2023-04-15T14:50:19;4.57;;;3.33;;
7983;SDS011;4037;47.980;10.172;2023-04-15T14:52:45;4.50;;;3.70;;
7983;SDS011;4037;47.980;10.172;2023-04-15T14:55:11;6.73;;;4.30;;
7983;SDS011;4037;47.980;10.172;2023-04-15T14:57:38;8.03;;;4.83;;
7983;SDS011;4037;47.980;10.172;2023-04-15T15:00:04;7.07;;;3.87;;
7983;SDS011;4037;47.980;10.172;2023-04-15T15:02:31;4.40;;;3.87;;
7983;SDS011;4037;47.980;10.172;2023-04-15T15:04:57;7.80;;;4.70;;
7983;SDS011;4037;47.980;10.172;2023-04-15T15:07:23;8.33;;;4.90;;
7983;SDS011;4037;47.980;10.172;2023-04-15T15:09:49;7.83;;;5.30;;